createdAt,value
2018-05-29T00:00:09.990Z,14.40
2018-05-29T00:02:37.450Z,17.40
2018-05-29T00:05:04.931Z,17.37
2018-05-29T00:07:32.390Z,21.90
2018-05-29T00:09:59.874Z,14.13
2018-05-29T00:12:27.346Z,18.10
2018-05-29T00:14:54.822Z,15.00
2018-05-29T00:17:22.286Z,12.33
2018-05-29T00:19:49.765Z,17.40
2018-05-29T00:22:17.224Z,13.90
2018-05-29T00:24:44.698Z,20.97
2018-05-29T00:27:12.927Z,17.40
2018-05-29T00:29:40.413Z,16.10
2018-05-29T00:32:07.878Z,13.47
2018-05-29T00:34:35.358Z,15.97
2018-05-29T00:37:02.824Z,16.43
2018-05-29T00:39:30.307Z,16.90
2018-05-29T00:41:57.782Z,16.30
2018-05-29T00:44:25.249Z,16.03
2018-05-29T00:46:52.757Z,14.90
2018-05-29T00:49:20.217Z,18.00
2018-05-29T00:51:47.691Z,19.47
2018-05-29T00:54:15.164Z,14.43
2018-05-29T00:56:42.630Z,14.03
2018-05-29T00:59:10.090Z,20.23
2018-05-29T01:01:37.572Z,20.03
2018-05-29T01:04:05.048Z,20.30
2018-05-29T01:06:32.518Z,16.07
2018-05-29T01:08:59.995Z,15.77
2018-05-29T01:11:27.467Z,16.23
2018-05-29T01:13:54.933Z,16.00
2018-05-29T01:16:22.412Z,16.27
2018-05-29T01:18:49.878Z,19.77
2018-05-29T01:21:17.378Z,17.77
2018-05-29T01:23:44.857Z,17.47
2018-05-29T01:26:12.323Z,21.63
2018-05-29T01:28:39.795Z,18.57
2018-05-29T01:31:07.259Z,21.50
2018-05-29T01:33:35.498Z,15.57
2018-05-29T01:36:02.970Z,16.67
2018-05-29T01:38:30.579Z,17.70
2018-05-29T01:40:58.042Z,18.73
2018-05-29T01:43:25.519Z,17.17
2018-05-29T01:45:52.990Z,18.57
2018-05-29T01:48:20.485Z,15.80
2018-05-29T01:50:48.734Z,17.97
2018-05-29T01:53:16.212Z,20.30
2018-05-29T01:55:44.445Z,17.40
2018-05-29T01:58:11.918Z,19.30
2018-05-29T02:00:39.377Z,19.03
2018-05-29T02:03:06.842Z,19.37
2018-05-29T02:05:34.302Z,19.13
2018-05-29T02:08:01.785Z,19.53
2018-05-29T02:10:29.254Z,22.83
2018-05-29T02:12:56.714Z,21.03
2018-05-29T02:15:24.197Z,20.57
2018-05-29T02:17:51.658Z,17.20
2018-05-29T02:20:19.133Z,17.57
2018-05-29T02:22:46.593Z,20.77
2018-05-29T02:25:14.061Z,20.83
2018-05-29T02:27:42.291Z,17.83
2018-05-29T02:30:09.762Z,17.00
2018-05-29T02:32:37.219Z,21.47
2018-05-29T02:35:04.754Z,17.63
2018-05-29T02:37:32.210Z,19.23
2018-05-29T02:39:59.698Z,18.03
2018-05-29T02:42:27.149Z,22.73
2018-05-29T02:44:54.629Z,19.40
2018-05-29T02:47:22.086Z,18.37
2018-05-29T02:49:49.562Z,18.90
2018-05-29T02:52:17.801Z,20.80
2018-05-29T02:54:45.257Z,18.73
2018-05-29T02:57:12.734Z,17.80
2018-05-29T02:59:40.190Z,18.23
2018-05-29T03:02:07.663Z,18.27
2018-05-29T03:04:35.118Z,20.17
2018-05-29T03:07:02.596Z,18.30
2018-05-29T03:09:30.058Z,18.10
2018-05-29T03:11:57.546Z,17.97
2018-05-29T03:14:25.030Z,20.57
2018-05-29T03:16:52.505Z,19.10
2018-05-29T03:19:20.733Z,19.20
2018-05-29T03:21:48.197Z,22.00
2018-05-29T03:24:15.663Z,18.90
2018-05-29T03:26:43.137Z,18.37
2018-05-29T03:29:10.601Z,19.40
2018-05-29T03:31:38.850Z,17.80
2018-05-29T03:34:06.314Z,19.80
2018-05-29T03:36:33.795Z,18.83
2018-05-29T03:39:01.250Z,19.93
2018-05-29T03:41:28.709Z,21.27
2018-05-29T03:43:56.185Z,21.10
2018-05-29T03:46:23.645Z,18.13
2018-05-29T03:48:51.112Z,21.50
2018-05-29T03:51:18.583Z,19.57
2018-05-29T03:53:46.045Z,21.13
2018-05-29T03:56:13.505Z,22.40
2018-05-29T03:58:40.981Z,18.80
2018-05-29T04:01:08.438Z,21.53
2018-05-29T04:03:35.903Z,21.00
2018-05-29T04:06:03.368Z,20.97
2018-05-29T04:08:30.846Z,20.40
2018-05-29T04:10:58.302Z,19.83
2018-05-29T04:13:25.773Z,23.03
2018-05-29T04:15:53.255Z,20.17
2018-05-29T04:18:20.713Z,20.17
2018-05-29T04:20:48.168Z,20.47
2018-05-29T04:23:15.645Z,25.30
2018-05-29T04:25:43.102Z,21.87
2018-05-29T04:28:10.574Z,25.47
2018-05-29T04:30:38.036Z,25.10
2018-05-29T04:33:05.521Z,20.73
2018-05-29T04:35:33.871Z,21.87
2018-05-29T04:38:01.333Z,20.73
2018-05-29T04:40:28.814Z,30.43
2018-05-29T04:42:56.273Z,21.70
2018-05-29T04:45:23.749Z,24.83
2018-05-29T04:47:51.205Z,35.30
2018-05-29T04:50:18.681Z,34.40
2018-05-29T04:52:46.147Z,35.77
2018-05-29T04:55:13.622Z,26.23
2018-05-29T04:57:41.102Z,21.10
2018-05-29T05:00:08.587Z,27.10
2018-05-29T05:02:36.053Z,22.87
2018-05-29T05:05:03.537Z,25.07
2018-05-29T05:07:30.994Z,24.13
2018-05-29T05:09:58.469Z,24.93
2018-05-29T05:12:25.930Z,27.57
2018-05-29T05:14:53.402Z,20.20
2018-05-29T05:17:20.857Z,24.77
2018-05-29T05:19:48.320Z,31.13
2018-05-29T05:22:15.829Z,34.63
2018-05-29T05:24:43.318Z,21.13
2018-05-29T05:27:10.905Z,24.80
2018-05-29T05:29:38.442Z,26.27
2018-05-29T05:32:05.974Z,29.20
2018-05-29T05:34:33.510Z,27.27
2018-05-29T05:37:01.065Z,26.60
2018-05-29T05:39:28.573Z,36.47
2018-05-29T05:41:56.097Z,33.57
2018-05-29T05:44:23.617Z,25.27
2018-05-29T05:46:51.120Z,26.20
2018-05-29T05:49:18.657Z,40.27
2018-05-29T05:51:46.224Z,31.97
2018-05-29T05:54:13.701Z,24.23
2018-05-29T05:56:41.231Z,23.27
2018-05-29T05:59:08.818Z,23.60
2018-05-29T06:01:36.443Z,27.47
2018-05-29T06:04:03.926Z,29.13
2018-05-29T06:06:31.511Z,29.07
2018-05-29T06:08:59.001Z,32.97
2018-05-29T06:11:26.797Z,26.07
2018-05-29T06:13:54.280Z,31.93
2018-05-29T06:16:21.781Z,32.30
2018-05-29T06:18:49.292Z,28.23
2018-05-29T06:21:16.761Z,29.90
2018-05-29T06:23:44.328Z,28.17
2018-05-29T06:26:11.847Z,29.60
2018-05-29T06:28:39.425Z,22.80
2018-05-29T06:31:06.929Z,31.60
2018-05-29T06:33:35.524Z,42.00
2018-05-29T06:36:03.007Z,39.80
2018-05-29T06:38:30.530Z,34.80
2018-05-29T06:40:58.036Z,35.87
2018-05-29T06:43:25.578Z,30.33
2018-05-29T06:45:53.150Z,31.23
2018-05-29T06:48:20.698Z,33.73
2018-05-29T06:50:48.220Z,32.67
2018-05-29T06:53:15.791Z,33.20
2018-05-29T06:55:43.556Z,31.27
2018-05-29T06:58:11.026Z,29.93
2018-05-29T07:00:38.520Z,23.33
2018-05-29T07:03:06.042Z,23.13
2018-05-29T07:05:33.544Z,24.23
2018-05-29T07:08:01.072Z,26.17
2018-05-29T07:10:28.573Z,23.20
2018-05-29T07:12:56.148Z,23.60
2018-05-29T07:15:23.678Z,21.43
2018-05-29T07:17:51.206Z,24.23
2018-05-29T07:20:18.784Z,21.23
2018-05-29T07:22:46.310Z,21.23
2018-05-29T07:25:13.793Z,27.03
2018-05-29T07:27:41.419Z,21.93
2018-05-29T07:30:08.889Z,22.33
2018-05-29T07:32:36.350Z,24.43
2018-05-29T07:35:03.833Z,25.87
2018-05-29T07:37:31.299Z,26.03
2018-05-29T07:39:58.773Z,22.73
2018-05-29T07:42:26.253Z,23.40
2018-05-29T07:44:53.729Z,24.33
2018-05-29T07:47:21.213Z,21.60
2018-05-29T07:49:49.109Z,23.27
2018-05-29T07:52:17.346Z,21.07
2018-05-29T07:54:44.814Z,23.07
2018-05-29T07:57:12.295Z,20.97
2018-05-29T07:59:39.752Z,20.70
2018-05-29T08:02:07.225Z,22.63
2018-05-29T08:04:34.692Z,26.97
2018-05-29T08:07:02.162Z,20.83
2018-05-29T08:09:29.618Z,25.07
2018-05-29T08:11:57.081Z,20.63
2018-05-29T08:14:24.542Z,21.43
2018-05-29T08:16:52.025Z,24.03
2018-05-29T08:19:19.498Z,24.37
2018-05-29T08:21:46.960Z,23.27
2018-05-29T08:24:14.417Z,21.40
2018-05-29T08:26:41.895Z,25.73
2018-05-29T08:29:10.150Z,21.00
2018-05-29T08:31:37.605Z,21.73
2018-05-29T08:34:05.073Z,24.97
2018-05-29T08:36:32.529Z,26.70
2018-05-29T08:39:00.006Z,21.97
2018-05-29T08:41:27.461Z,22.43
2018-05-29T08:43:54.937Z,25.83
2018-05-29T08:46:22.453Z,24.63
2018-05-29T08:48:49.869Z,24.60
2018-05-29T08:51:17.349Z,20.17
2018-05-29T08:53:44.821Z,21.33
2018-05-29T08:56:12.287Z,24.10
2018-05-29T08:58:40.525Z,25.17
2018-05-29T09:01:07.997Z,26.67
2018-05-29T09:03:35.476Z,22.37
2018-05-29T09:06:02.939Z,26.83
2018-05-29T09:08:30.424Z,23.07
2018-05-29T09:10:57.881Z,23.20
2018-05-29T09:13:25.354Z,23.47
2018-05-29T09:15:52.826Z,23.30
2018-05-29T09:18:20.294Z,22.30
2018-05-29T09:20:47.763Z,24.53
2018-05-29T09:23:15.230Z,22.13
2018-05-29T09:25:42.698Z,23.17
2018-05-29T09:28:10.956Z,22.13
2018-05-29T09:30:38.440Z,20.87
2018-05-29T09:33:05.936Z,25.97
2018-05-29T09:35:33.444Z,23.60
2018-05-29T09:38:00.986Z,24.93
2018-05-29T09:40:28.534Z,23.23
2018-05-29T09:42:56.066Z,22.27
2018-05-29T09:45:23.562Z,22.33
2018-05-29T09:47:51.071Z,26.07
2018-05-29T09:50:18.532Z,25.10
2018-05-29T09:52:46.017Z,24.27
2018-05-29T09:55:13.465Z,23.33
2018-05-29T09:57:40.930Z,21.17
2018-05-29T10:00:08.414Z,21.43
2018-05-29T10:02:35.889Z,22.03
2018-05-29T10:05:03.382Z,25.13
2018-05-29T10:07:30.852Z,23.83
2018-05-29T10:09:58.772Z,23.40
2018-05-29T10:12:25.800Z,22.70
2018-05-29T10:14:53.256Z,27.87
2018-05-29T10:17:20.729Z,21.50
2018-05-29T10:19:48.189Z,22.50
2018-05-29T10:22:15.669Z,26.10
2018-05-29T10:24:43.143Z,24.97
2018-05-29T10:27:10.614Z,29.47
2018-05-29T10:29:38.122Z,22.53
2018-05-29T10:32:06.417Z,28.57
2018-05-29T10:34:33.972Z,22.10
2018-05-29T10:37:01.528Z,25.53
2018-05-29T10:39:29.029Z,23.57
2018-05-29T10:41:56.585Z,24.47
2018-05-29T10:44:24.063Z,23.30
2018-05-29T10:46:52.357Z,26.30
2018-05-29T10:49:19.836Z,21.97
2018-05-29T10:51:47.410Z,23.30
2018-05-29T10:54:15.646Z,26.73
2018-05-29T10:56:43.159Z,22.60
2018-05-29T10:59:10.724Z,21.80
2018-05-29T11:01:38.144Z,37.60
2018-05-29T11:04:05.619Z,24.53
2018-05-29T11:06:33.078Z,25.93
2018-05-29T11:09:00.581Z,26.13
2018-05-29T11:11:28.041Z,25.30
2018-05-29T11:13:55.526Z,22.23
2018-05-29T11:16:22.993Z,24.83
2018-05-29T11:18:50.473Z,20.87
2018-05-29T11:21:17.933Z,22.93
2018-05-29T11:23:45.397Z,28.77
2018-05-29T11:26:13.018Z,28.63
2018-05-29T11:28:40.485Z,23.87
2018-05-29T11:31:07.973Z,22.33
2018-05-29T11:33:35.430Z,27.03
2018-05-29T11:36:02.885Z,21.40
2018-05-29T11:38:30.346Z,19.77
2018-05-29T11:40:58.646Z,21.23
2018-05-29T11:43:26.137Z,21.40
2018-05-29T11:45:53.613Z,20.90
2018-05-29T11:48:21.074Z,25.13
2018-05-29T11:50:48.550Z,19.23
2018-05-29T11:53:16.013Z,19.93
2018-05-29T11:55:43.493Z,20.87
2018-05-29T11:58:10.957Z,23.20
2018-05-29T12:00:39.206Z,23.97
2018-05-29T12:03:06.658Z,19.60
2018-05-29T12:05:34.130Z,21.67
2018-05-29T12:08:02.378Z,25.90
2018-05-29T12:10:29.852Z,33.83
2018-05-29T12:12:57.309Z,22.80
2018-05-29T12:15:24.923Z,21.27
2018-05-29T12:17:52.384Z,22.23
2018-05-29T12:20:19.873Z,19.70
2018-05-29T12:22:47.346Z,28.73
2018-05-29T12:25:14.801Z,19.57
2018-05-29T12:27:42.311Z,22.57
2018-05-29T12:30:09.969Z,20.03
2018-05-29T12:32:37.437Z,21.37
2018-05-29T12:35:04.906Z,24.83
2018-05-29T12:37:32.373Z,23.50
2018-05-29T12:39:59.837Z,23.53
2018-05-29T12:42:27.297Z,21.37
2018-05-29T12:44:55.018Z,20.73
2018-05-29T12:47:22.484Z,28.90
2018-05-29T12:49:50.180Z,20.63
2018-05-29T12:52:17.654Z,32.57
2018-05-29T12:54:45.105Z,22.90
2018-05-29T12:57:12.757Z,23.67
2018-05-29T12:59:40.219Z,21.20
2018-05-29T13:02:07.723Z,17.13
2018-05-29T13:04:35.966Z,20.00
2018-05-29T13:07:03.545Z,16.90
2018-05-29T13:09:30.998Z,19.23
2018-05-29T13:11:58.536Z,20.93
2018-05-29T13:14:26.029Z,18.93
2018-05-29T13:16:53.498Z,16.47
2018-05-29T13:19:21.009Z,18.60
2018-05-29T13:21:48.503Z,19.23
2018-05-29T13:24:16.059Z,18.03
2018-05-29T13:26:43.529Z,17.97
2018-05-29T13:29:11.062Z,16.70
2018-05-29T13:31:39.473Z,17.13
2018-05-29T13:34:06.958Z,17.73
2018-05-29T13:36:34.417Z,18.60
2018-05-29T13:39:01.906Z,18.10
2018-05-29T13:41:29.444Z,23.83
2018-05-29T13:43:56.936Z,19.17
2018-05-29T13:46:24.441Z,16.43
2018-05-29T13:48:51.917Z,21.47
2018-05-29T13:51:19.441Z,17.77
2018-05-29T13:53:46.952Z,20.07
2018-05-29T13:56:14.475Z,19.80
2018-05-29T13:58:41.949Z,20.40
2018-05-29T14:01:09.418Z,20.53
2018-05-29T14:03:36.913Z,24.60
2018-05-29T14:06:04.446Z,22.00
2018-05-29T14:08:32.743Z,21.23
2018-05-29T14:11:00.296Z,24.10
2018-05-29T14:13:27.795Z,18.53
2018-05-29T14:15:55.322Z,18.47
2018-05-29T14:18:22.833Z,18.67
2018-05-29T14:20:50.390Z,17.03
2018-05-29T14:23:17.870Z,18.90
2018-05-29T14:25:46.180Z,18.50
2018-05-29T14:28:13.690Z,19.40
2018-05-29T14:30:41.939Z,17.47
2018-05-29T14:33:09.565Z,17.23
2018-05-29T14:35:37.252Z,18.87
2018-05-29T14:38:04.722Z,18.70
2018-05-29T14:40:32.276Z,19.00
2018-05-29T14:42:59.785Z,16.57
2018-05-29T14:45:27.319Z,15.03
2018-05-29T14:47:54.788Z,15.47
2018-05-29T14:50:22.278Z,17.27
2018-05-29T14:52:50.629Z,16.50
2018-05-29T14:55:18.139Z,17.27
2018-05-29T14:57:45.637Z,19.40
2018-05-29T15:00:13.870Z,17.20
2018-05-29T15:02:41.340Z,16.60
2018-05-29T15:05:08.802Z,12.03
2018-05-29T15:07:36.290Z,11.80
2018-05-29T15:10:03.774Z,17.97
2018-05-29T15:12:31.241Z,16.90
2018-05-29T15:14:58.693Z,14.70
2018-05-29T15:17:26.235Z,12.10
2018-05-29T15:19:54.505Z,12.40
2018-05-29T15:22:22.034Z,11.63
2018-05-29T15:24:49.561Z,11.90
2018-05-29T15:27:17.020Z,11.50
2018-05-29T15:29:44.486Z,15.47
2018-05-29T15:32:11.960Z,12.77
2018-05-29T15:34:39.425Z,14.50
2018-05-29T15:37:06.881Z,15.20
2018-05-29T15:39:34.450Z,17.07
2018-05-29T15:42:01.922Z,11.43
2018-05-29T15:44:29.406Z,10.87
2018-05-29T15:46:56.925Z,16.00
2018-05-29T15:49:25.162Z,10.37
2018-05-29T15:51:52.647Z,12.40
2018-05-29T15:54:20.121Z,15.40
2018-05-29T15:56:47.584Z,10.73
2018-05-29T15:59:15.077Z,15.67
2018-05-29T16:01:42.574Z,13.53
2018-05-29T16:04:10.082Z,13.00
2018-05-29T16:06:37.586Z,12.73
2018-05-29T16:09:05.823Z,12.40
2018-05-29T16:11:33.284Z,13.90
2018-05-29T16:14:00.884Z,10.47
2018-05-29T16:16:28.362Z,13.47
2018-05-29T16:18:55.847Z,14.70
2018-05-29T16:21:23.369Z,12.03
2018-05-29T16:23:50.838Z,10.93
2018-05-29T16:26:18.333Z,15.03
2018-05-29T16:28:45.814Z,13.53
2018-05-29T16:31:13.265Z,15.30
2018-05-29T16:33:40.735Z,11.27
2018-05-29T16:36:08.193Z,13.70
2018-05-29T16:38:35.654Z,13.20
2018-05-29T16:41:03.122Z,14.10
2018-05-29T16:43:31.349Z,11.47
2018-05-29T16:45:58.813Z,11.70
2018-05-29T16:48:26.274Z,11.33
2018-05-29T16:50:53.752Z,15.03
2018-05-29T16:53:21.201Z,13.27
2018-05-29T16:55:48.673Z,13.50
2018-05-29T16:58:16.151Z,12.43
2018-05-29T17:00:43.609Z,10.20
2018-05-29T17:03:11.107Z,14.13
2018-05-29T17:05:38.572Z,12.60
2018-05-29T17:08:06.046Z,11.53
2018-05-29T17:10:33.509Z,10.47
2018-05-29T17:13:00.965Z,13.33
2018-05-29T17:15:28.453Z,10.57
2018-05-29T17:17:56.665Z,13.80
2018-05-29T17:20:24.137Z,13.43
2018-05-29T17:22:51.597Z,15.70
2018-05-29T17:25:19.085Z,15.53
2018-05-29T17:27:46.537Z,12.37
2018-05-29T17:30:14.010Z,16.83
2018-05-29T17:32:41.470Z,12.23
2018-05-29T17:35:08.922Z,7.83
2018-05-29T17:37:36.381Z,8.43
2018-05-29T17:40:03.834Z,12.93
2018-05-29T17:42:31.298Z,11.00
2018-05-29T17:44:58.798Z,8.47
2018-05-29T17:47:26.225Z,9.83
2018-05-29T17:49:53.678Z,9.57
2018-05-29T17:52:21.156Z,11.10
2018-05-29T17:54:48.603Z,7.63
2018-05-29T17:57:16.073Z,7.10
2018-05-29T17:59:44.429Z,8.97
2018-05-29T18:02:11.899Z,9.13
2018-05-29T18:04:39.358Z,6.93
2018-05-29T18:07:06.813Z,7.60
2018-05-29T18:09:34.311Z,6.50
2018-05-29T18:12:01.733Z,8.13
2018-05-29T18:14:29.202Z,6.60
2018-05-29T18:16:56.665Z,12.40
2018-05-29T18:19:24.126Z,7.30
2018-05-29T18:21:51.581Z,8.70
2018-05-29T18:24:19.034Z,8.33
2018-05-29T18:26:46.496Z,8.27
2018-05-29T18:29:13.970Z,9.23
2018-05-29T18:31:41.425Z,8.97
2018-05-29T18:34:08.890Z,7.37
2018-05-29T18:36:36.337Z,6.50
2018-05-29T18:39:03.805Z,9.27
2018-05-29T18:41:31.266Z,11.43
2018-05-29T18:43:58.733Z,10.10
2018-05-29T18:46:26.948Z,9.53
2018-05-29T18:48:54.414Z,11.90
2018-05-29T18:51:21.870Z,10.37
2018-05-29T18:53:49.343Z,7.90
2018-05-29T18:56:16.812Z,9.07
2018-05-29T18:58:44.275Z,8.07
2018-05-29T19:01:11.725Z,11.30
2018-05-29T19:03:39.193Z,7.77
2018-05-29T19:06:06.646Z,9.63
2018-05-29T19:08:34.117Z,11.70
2018-05-29T19:11:01.570Z,9.80
2018-05-29T19:13:29.041Z,7.67
2018-05-29T19:15:56.497Z,11.07
2018-05-29T19:18:23.954Z,8.73
2018-05-29T19:20:51.425Z,10.90
2018-05-29T19:23:18.884Z,10.37
2018-05-29T19:25:46.354Z,9.37
2018-05-29T19:28:13.804Z,8.83
2018-05-29T19:30:41.271Z,10.53
2018-05-29T19:33:08.725Z,7.47
2018-05-29T19:35:36.193Z,11.03
2018-05-29T19:38:03.650Z,11.70
2018-05-29T19:40:31.105Z,7.83
2018-05-29T19:42:58.552Z,8.03
2018-05-29T19:45:26.017Z,7.10
2018-05-29T19:47:53.473Z,9.03
2018-05-29T19:50:20.935Z,12.70
2018-05-29T19:52:48.385Z,9.57
2018-05-29T19:55:15.849Z,10.73
2018-05-29T19:57:43.305Z,10.57
2018-05-29T20:00:10.773Z,8.27
2018-05-29T20:02:38.234Z,9.90
2018-05-29T20:05:05.708Z,9.27
2018-05-29T20:07:33.165Z,7.63
2018-05-29T20:10:00.621Z,8.37
2018-05-29T20:12:28.092Z,11.47
2018-05-29T20:14:55.562Z,11.10
2018-05-29T20:17:30.726Z,12.63
2018-05-29T20:19:58.229Z,10.27
2018-05-29T20:22:25.653Z,13.70
2018-05-29T20:24:53.115Z,7.43
2018-05-29T20:27:20.585Z,9.63
2018-05-29T20:29:48.041Z,10.13
2018-05-29T20:32:15.518Z,10.67
2018-05-29T20:34:42.969Z,9.03
2018-05-29T20:37:10.435Z,11.27
2018-05-29T20:39:37.889Z,11.17
2018-05-29T20:42:05.353Z,12.67
2018-05-29T20:44:32.813Z,10.00
2018-05-29T20:47:00.273Z,10.23
2018-05-29T20:49:27.733Z,11.13
2018-05-29T20:51:55.201Z,11.87
2018-05-29T20:54:22.665Z,10.23
2018-05-29T20:56:50.142Z,11.03
2018-05-29T20:59:17.590Z,8.33
2018-05-29T21:01:45.066Z,9.03
2018-05-29T21:04:12.521Z,10.30
2018-05-29T21:06:39.977Z,12.50
2018-05-29T21:09:07.446Z,13.63
2018-05-29T21:11:34.897Z,10.77
2018-05-29T21:14:02.370Z,8.80
2018-05-29T21:16:29.821Z,9.60
2018-05-29T21:18:57.281Z,7.87
2018-05-29T21:21:24.748Z,12.70
2018-05-29T21:23:52.204Z,8.37
2018-05-29T21:26:19.662Z,12.57
2018-05-29T21:28:47.129Z,8.87
2018-05-29T21:31:14.593Z,8.90
2018-05-29T21:33:42.054Z,8.53
2018-05-29T21:36:09.510Z,8.47
2018-05-29T21:38:36.985Z,10.17
2018-05-29T21:41:04.444Z,12.97
2018-05-29T21:43:31.915Z,11.00
2018-05-29T21:45:59.365Z,12.70
2018-05-29T21:48:26.841Z,8.93
2018-05-29T21:50:54.302Z,10.17
2018-05-29T21:53:21.765Z,8.27
2018-05-29T21:55:49.226Z,10.40
2018-05-29T21:58:16.705Z,12.53
2018-05-29T22:00:44.158Z,9.70
2018-05-29T22:03:11.617Z,9.47
2018-05-29T22:05:39.085Z,12.37
2018-05-29T22:08:06.545Z,14.27
2018-05-29T22:10:34.013Z,11.00
2018-05-29T22:13:01.468Z,11.27
2018-05-29T22:15:28.929Z,13.60
2018-05-29T22:17:57.154Z,10.60
2018-05-29T22:20:24.622Z,10.70
2018-05-29T22:22:52.077Z,10.90
2018-05-29T22:25:19.537Z,9.63
2018-05-29T22:27:46.985Z,9.70
2018-05-29T22:30:14.467Z,12.97
2018-05-29T22:32:41.917Z,10.53
2018-05-29T22:35:09.386Z,11.80
2018-05-29T22:37:36.845Z,11.40
2018-05-29T22:40:04.297Z,8.93
2018-05-29T22:42:31.775Z,10.60
2018-05-29T22:44:59.224Z,10.73
2018-05-29T22:47:26.689Z,13.20
2018-05-29T22:49:54.910Z,14.60
2018-05-29T22:52:22.379Z,9.80
2018-05-29T22:54:49.844Z,11.37
2018-05-29T22:57:17.300Z,9.50
2018-05-29T22:59:44.761Z,11.70
2018-05-29T23:02:12.239Z,10.53
2018-05-29T23:04:39.739Z,13.20
2018-05-29T23:07:07.161Z,10.23
2018-05-29T23:09:34.612Z,12.27
2018-05-29T23:12:02.073Z,14.83
2018-05-29T23:14:29.530Z,13.17
2018-05-29T23:16:56.989Z,12.67
2018-05-29T23:19:25.244Z,13.27
2018-05-29T23:21:52.688Z,14.93
2018-05-29T23:24:20.154Z,14.63
2018-05-29T23:26:47.621Z,16.33
2018-05-29T23:29:15.081Z,11.23
2018-05-29T23:31:42.546Z,13.63
2018-05-29T23:34:10.013Z,10.63
2018-05-29T23:36:38.234Z,15.70
2018-05-29T23:39:05.702Z,14.00
2018-05-29T23:41:33.165Z,15.13
2018-05-29T23:44:00.634Z,9.80
2018-05-29T23:46:28.097Z,13.50
2018-05-29T23:48:55.559Z,16.90
2018-05-29T23:51:23.013Z,13.10
2018-05-29T23:53:50.490Z,11.10
2018-05-29T23:56:17.945Z,10.93
2018-05-29T23:58:45.409Z,10.83
